Downloads

-JavaCPC -demo -emu -j-cpc_ani -tools 0-9 A B C D E F G H I J K L M N O P Q R S T U V W X Y Z ZZZ_UNK roms
FILEDATESIZEDLs
KTris by Richard Wilson (PD).zip 2017-04-21 16:14 2 Kb183
Kaiser (G) (19xx).zip 2017-04-21 16:13 91 Kb201
Kane & Nebulus & Renaud - Marche a l'Ombre.zip 2017-04-21 16:13 95 Kb108
Kane (UK) (1986).zip 2017-04-21 16:13 28 Kb172
Kane (UK) (1986) [a1].zip 2017-04-21 16:13 80 Kb185
Kane (UK) (1986) [a2].zip 2017-04-21 16:13 38 Kb166
Kane (UK) (1986) [t1].zip 2017-04-21 16:13 38 Kb183
Karateka (F) (1986).zip 2017-04-21 16:13 50 Kb178
Karateka (F) (1986) [f1].zip 2017-04-21 16:13 50 Kb179
Karateka (F) (1986) [t1].zip 2017-04-21 16:13 50 Kb178
Karateka (F) (1990).zip 2017-04-21 16:13 49 Kb180
Karateka (F) (1990) [t1].zip 2017-04-21 16:13 49 Kb172
Karateka (F).dsk 2017-04-21 16:13 192 Kb182
Karl's Treasure Hunt (UK) (1984).zip 2017-04-21 16:13 11 Kb173
Karl's Treasure Hunt (UK) (1984) [a1].zip 2017-04-21 16:13 84 Kb173
Karl's Treasure Hunt (UK) (1984) [a2].zip 2017-04-21 16:13 11 Kb167
Karnov (E) - Disk 1A.dsk 2017-04-21 16:13 214 Kb170
Karnov (E) - Disk 1B.dsk 2017-04-21 16:13 214 Kb168
Karnov (UK) (1988) (Disk 1 of 2).zip 2017-04-21 16:13 73 Kb165
Karnov (UK) (1988) (Disk 1 of 2) [a1].zip 2017-04-21 16:13 56 Kb161
Karnov (UK) (1988) (Disk 1 of 2) [t1].zip 2017-04-21 16:13 159 Kb178
Karnov (UK) (1988) (Disk 1 of 2) [t2].zip 2017-04-21 16:13 73 Kb162
Karnov (UK) (1988) (Disk 2 of 2).zip 2017-04-21 16:13 62 Kb170
Karnov (UK) (1988) (Disk 2 of 2) [a1].zip 2017-04-21 16:13 105 Kb169
Karnov (UK) (1988) (Disk 2 of 2) [t2].zip 2017-04-21 16:13 62 Kb201
Kat Trap (E).dsk 2017-04-21 16:13 91 Kb169
Kat Trap (UK) (1987).zip 2017-04-21 16:13 34 Kb174
Keep Yourself Alive (F) (1987).zip 2017-04-21 16:13 19 Kb176
Kenny Dalglish Soccer Manager (E).cdt 2017-04-21 16:13 57 Kb185
Kenny Dalglish Soccer Manager (UK) (1989).zip 2017-04-21 16:13 25 Kb170
Kenny Dalglish Soccer Match (UK) (1990).zip 2017-04-21 16:13 29 Kb171
Kentilla (UK) (1985).zip 2017-04-21 16:13 23 Kb175
Kentilla (UK) (1985) [a1].zip 2017-04-21 16:13 30 Kb174
Kentucky Racing (E).cdt 2017-04-21 16:13 45 Kb180
Kentucky Racing (UK) (1990).zip 2017-04-21 16:13 24 Kb168
Kentucky Racing (UK) (1990) [f1].zip 2017-04-21 16:13 24 Kb176
Kessia (F) (19xx).zip 2017-04-21 16:13 72 Kb170
Kettle (E).dsk 2017-04-21 16:13 193 Kb166
Kettle (UK) (1986).zip 2017-04-21 16:13 21 Kb178
Kevin Thacker's CPC Guide (UK) (19xx) (PD) (Disk 1 of 2).zip 2017-04-21 16:13 47 Kb163
Kevin Thacker's CPC Guide (UK) (19xx) (PD) (Disk 2 of 2).zip 2017-04-21 16:13 41 Kb167
Key Factor, The (UK) (1985).zip 2017-04-21 16:13 13 Kb171
Kick Off (UK,F,G,S,I) (1990).zip 2017-04-21 16:13 27 Kb171
Kick Off (UK,F,G,S,I) (1990) [a1].zip 2017-04-21 16:13 131 Kb168
Kick Off (UK,F,G,S,I) (1990) [a2].zip 2017-04-21 16:13 31 Kb164
Kick Off 2 (E) - Disk 1A.dsk 2017-04-21 16:13 178 Kb183
Kick Off 2 (E) - Disk 1B.dsk 2017-04-21 16:13 178 Kb176
Kick Off 2 (F) (1990).zip 2017-04-21 16:13 68 Kb172
Kick Off 2 (F) (1990) [a1].zip 2017-04-21 16:13 68 Kb174
Kikstart II (UK) (1988).zip 2017-04-21 16:13 24 Kb174
Kikstart II (UK) (1988) [a1].zip 2017-04-21 16:13 23 Kb180
Killapede (UK) (1986).zip 2017-04-21 16:13 26 Kb169
Killapede (UK) (1986) [a1].zip 2017-04-21 16:13 26 Kb165
Killapede (UK) (1986) [a2].zip 2017-04-21 16:13 32 Kb179
Killapede (UK) (1986) [a3].zip 2017-04-21 16:13 30 Kb200
Killed Until Dead (UK) (1987) (Disk 1 of 2).zip 2017-04-21 16:13 50 Kb160
Killed Until Dead (UK) (1987) (Disk 2 of 2).zip 2017-04-21 16:13 62 Kb166
Killer Ball (UK) (1991).zip 2017-04-21 16:14 103 Kb168
Killer Ball (UK) (1991) [a1].zip 2017-04-21 16:13 103 Kb168
Killer Ball (UK) (1991) [a2].zip 2017-04-21 16:13 76 Kb167
Killer Ball (UK) (1991) [a3].zip 2017-04-21 16:13 96 Kb164
Killer Cobra (E).cdt 2017-04-21 16:14 49 Kb168
Killer Cobra (UK) (1987).zip 2017-04-21 16:14 27 Kb170
Killer Cobra (UK) (1987) [a1].zip 2017-04-21 16:14 27 Kb169
Killer Cobra (UK) (1987) [a2].zip 2017-04-21 16:14 31 Kb164
Killer Gorilla & Knight Lore & Laserwarp & Molecule Man & Zaxx (F).zip 2017-04-21 16:14 82 Kb109
Killer Gorilla (UK) (1984).zip 2017-04-21 16:14 19 Kb171
Killer Gorilla (UK) (1984) [a1].zip 2017-04-21 16:14 19 Kb177
Killer Gorilla (UK) (1984) [a2].zip 2017-04-21 16:14 15 Kb180
Killer Gorilla (UK) (1984) [a3].zip 2017-04-21 16:14 18 Kb171
Killer Gorilla (UK) (1984) [b1].zip 2017-04-21 16:14 19 Kb170
Killer Gorilla (UK) (1984) [b2].zip 2017-04-21 16:14 19 Kb172
Killer Ring (UK) (1987).zip 2017-04-21 16:14 16 Kb173
Killer Ring (UK) (1987) [a1].zip 2017-04-21 16:14 16 Kb175
Kiloroid (UK) (19xx).zip 2017-04-21 16:14 2 Kb167
Kim (F) (1986).zip 2017-04-21 16:14 9 Kb170
Kinetic (UK) (1987).zip 2017-04-21 16:14 35 Kb167
Kinetic (UK) (1987) [a1].zip 2017-04-21 16:14 36 Kb173
Kinetic (UK) (1987) [a2].zip 2017-04-21 16:14 35 Kb176
Kinetik (E).dsk 2017-04-21 16:14 195 Kb185
Kingdom of Hamil (UK) (1987).zip 2017-04-21 16:14 57 Kb167
Kingdoms (UK) (1985).zip 2017-04-21 16:14 5 Kb168
Kit de Telechargement - Telecharge Amstrad CPC (F).dsk 2017-04-21 16:14 217 Kb176
Kit de Telechargement pour Amstrad CPC (F).dsk 2017-04-21 16:14 191 Kb192
Klax & Meynaumede (F) & Nervous Break Down (F) & Skweek.zip 2017-04-21 16:14 97 Kb110
Klax (E).dsk 2017-04-21 16:14 172 Kb172
Klax (UK) (1990) (CPM).zip 2017-04-21 16:14 44 Kb165
Klax (UK) (1990) (CPM) [a1].zip 2017-04-21 16:14 44 Kb180
Klax (UK) (1990) (CPM Version).zip 2017-04-21 16:14 43 Kb163
Klax (UK) (1990) (CPM Version) [a1].zip 2017-04-21 16:14 43 Kb172
Klax (UK) (1990) (Cart).zip 2017-04-21 16:14 41 Kb176
Klax (UK) (1990).zip 2017-04-21 16:14 42 Kb165
Klax (UK) (1990) [a1].zip 2017-04-21 16:14 42 Kb178
Klax (UK) (1990) [h1].zip 2017-04-21 16:14 52 Kb167
Klax (UK) (1990) [h2].zip 2017-04-21 16:14 54 Kb172
Knaves and thou Prisoners (UK) (19xx).zip 2017-04-21 16:14 8 Kb163
Knight Force (F) (1989) (Disk 1 of 2).zip 2017-04-21 16:14 54 Kb169
Knight Force (F) (1989) (Disk 1 of 2) [t1].zip 2017-04-21 16:14 55 Kb164
Knight Force (F) (1989) (Disk 1 of 2) [t2] & Power Drift.zip 2017-04-21 16:14 108 Kb101
Knight Force (F) (1989) (Disk 1 of 2) [t2].zip 2017-04-21 16:14 75 Kb162
Knight Force (F) (1989) (Disk 2 of 2).zip 2017-04-21 16:14 76 Kb171
Knight Force (F) - Disk 1A.dsk 2017-04-21 16:14 456 Kb173
Knight Force (F) - Disk 1B.dsk 2017-04-21 16:14 627 Kb173
Knight Games (E) - Side A.cdt 2017-04-21 16:14 166 Kb178
Knight Games (E) - Side B.cdt 2017-04-21 16:14 142 Kb165
Knight Games (UK) (1986) (Disk 1 of 2).zip 2017-04-21 16:14 88 Kb172
Knight Games (UK) (1986) (Disk 1 of 2) [a1].zip 2017-04-21 16:14 83 Kb163
Knight Games (UK) (1986) (Disk 1 of 2) [a2].zip 2017-04-21 16:14 83 Kb162
Knight Games (UK) (1986) (Disk 1 of 2) [a3].zip 2017-04-21 16:14 103 Kb155
Knight Games (UK) (1986) (Disk 2 of 2).zip 2017-04-21 16:14 94 Kb174
Knight Games (UK) (1986) (Disk 2 of 2) [a1].zip 2017-04-21 16:14 76 Kb163
Knight Games (UK) (1986) (Disk 2 of 2) [a2].zip 2017-04-21 16:14 79 Kb161
Knight Games (UK) (1986) (Disk 2 of 2) [a3].zip 2017-04-21 16:14 109 Kb163
Knight Games (UK) (1986) [f1][t1].zip 2017-04-21 16:14 179 Kb168
Knight Lore (E).cdt 2017-04-21 16:14 42 Kb171
Knight Lore (UK) (1984).zip 2017-04-21 16:14 25 Kb176
Knight Lore (UK) (1984) [a1].zip 2017-04-21 16:14 25 Kb174
Knight Lore (UK) (1984) [a2].zip 2017-04-21 16:14 25 Kb175
Knight Moves (F) (19xx) (Disk 1 of 2).zip 2017-04-21 16:14 60 Kb169
Knight Moves (F) (19xx) (Disk 2 of 2).zip 2017-04-21 16:14 83 Kb171
Knight Orc (E) - Disk 1A.dsk 2017-04-21 16:14 194 Kb172
Knight Orc (E) - Disk 1B.dsk 2017-04-21 16:14 199 Kb173
Knight Orc (UK) (1987) (Disk 1 of 2).zip 2017-04-21 16:14 119 Kb181
Knight Orc (UK) (1987) (Disk 2 of 2).zip 2017-04-21 16:14 110 Kb174
Knight Rider (E).cdt 2017-04-21 16:14 45 Kb176
Knight Rider (UK) (1986).zip 2017-04-21 16:14 20 Kb168
Knight Rider (UK) (1986) [h1].zip 2017-04-21 16:14 32 Kb168
Knight Rider (UK) (1986) [h2].zip 2017-04-21 16:14 21 Kb174
Knight Tyme (E).cdt 2017-04-21 16:14 57 Kb177
Knight Tyme (UK) (1986).zip 2017-04-21 16:14 31 Kb178
Knight Tyme (UK) (1986) [a1].zip 2017-04-21 16:14 31 Kb174
Knight Tyme (UK) (1986) [t1].zip 2017-04-21 16:14 31 Kb165
Knightmare (E).dsk 2017-04-21 16:14 213 Kb184
Knightmare (UK) (1987).zip 2017-04-21 16:14 29 Kb168
Knightmare (UK) (1987) [a1].zip 2017-04-21 16:14 30 Kb167
Knightmare (UK) (1987) [a2].zip 2017-04-21 16:14 30 Kb176
Knightmare (UK) (1987) [t1].zip 2017-04-21 16:14 33 Kb170
Know (G).dsk 2017-04-21 16:14 192 Kb188
Kobayashi Naru (UK) (19xx).zip 2017-04-21 16:14 31 Kb181
Kobayashi Naru (UK) (1987).zip 2017-04-21 16:14 31 Kb185
Kobayashi Naru (UK) (1987) [a1].zip 2017-04-21 16:14 31 Kb171
Kobayashi Naru (UK) (1987) [a2].zip 2017-04-21 16:14 48 Kb191
Kokotoni Wilf (UK) (19xx).zip 2017-04-21 16:14 137 Kb178
Kokotoni Wilf (UK) (19xx) [a1].zip 2017-04-21 16:14 35 Kb178
Kokotoni Wilf (UK) (19xx) [f1][t1].zip 2017-04-21 16:14 37 Kb170
Konami's Golf (UK) (1986).zip 2017-04-21 16:14 24 Kb166
Konami's Golf (UK) (1986) [a1].zip 2017-04-21 16:14 24 Kb171
Konami's Golf (UK) (1986) [a2].zip 2017-04-21 16:14 26 Kb173
Konami Coin-op Hits (UK) (19xx) (Disk 1 of 2).zip 2017-04-21 16:14 50 Kb173
Konami Coin-op Hits (UK) (19xx) (Disk 1 of 2) [a1].zip 2017-04-21 16:14 50 Kb160
Konami Coin-op Hits (UK) (19xx) (Disk 2 of 2).zip 2017-04-21 16:14 65 Kb164
Konami Coin-op Hits (UK) (19xx) (Disk 2 of 2) [a1].zip 2017-04-21 16:14 65 Kb183
Konami Coin-op Hits (UK) (19xx) (Disk 2 of 2) [a2].zip 2017-04-21 16:14 65 Kb164
Kong Strikes Back (UK) (1985).zip 2017-04-21 16:14 21 Kb186
Kong Strikes Back (UK) (1985) [a1].zip 2017-04-21 16:14 21 Kb183
Kong Strikes Back (UK) (1985) [a2].zip 2017-04-21 16:14 23 Kb172
Koronis Rift (E).dsk 2017-04-21 16:14 186 Kb177
Koronis Rift (UK) (1987).zip 2017-04-21 16:14 57 Kb174
Krakout (E).cdt 2017-04-21 16:14 64 Kb184
Krakout (E).dsk 2017-04-21 16:14 171 Kb177
Krakout (UK) (1987).zip 2017-04-21 16:14 31 Kb177
Krakout (UK) (1987) [h1].zip 2017-04-21 16:14 34 Kb175
Kristal (F).dsk 2017-04-21 16:14 191 Kb179
Kristal (UK) (1985).zip 2017-04-21 16:14 16 Kb182
Kristax (UK) (1989).zip 2017-04-21 16:14 9 Kb180
Krypton Factor (UK) (1987) (Disk 1 of 2).zip 2017-04-21 16:14 52 Kb165
Krypton Factor (UK) (1987) (Disk 1 of 2) [a1].zip 2017-04-21 16:14 47 Kb174
Krypton Factor (UK) (1987) (Disk 2 of 2).zip 2017-04-21 16:14 5 Kb172
Krypton Factor (UK) (1987) (Disk 2 of 2) [a1].zip 2017-04-21 16:14 21 Kb169
Kung-Fu (UK) (1986).zip 2017-04-21 16:14 19 Kb173
Kung-Fu Master (E).dsk 2017-04-21 16:14 191 Kb169
Kung-Fu Master (UK) (1986).zip 2017-04-21 16:14 28 Kb184
Kung-Fu Master (UK) (1986) [h1].zip 2017-04-21 16:14 22 Kb173
Kwah (UK) (1987).zip 2017-04-21 16:14 36 Kb161
Kwik Snax (E).cdt 2017-04-21 16:14 65 Kb186
Kwik Snax (UK) (1990).zip 2017-04-21 16:14 22 Kb168
Kwik Snax (UK) (1990) [f1].zip 2017-04-21 16:14 33 Kb180
Kwik Snax (UK) (1990) [h1].zip 2017-04-21 16:14 41 Kb174
Kwik Snax (UK) (1990) [t1].zip 2017-04-21 16:14 33 Kb175
kobayashi Naru (E).cdt 2017-04-21 16:14 74 Kb174
180 Files
-JavaCPC -demo -emu -j-cpc_ani -tools 0-9 A B C D E F G H I J K L M N O P Q R S T U V W X Y Z ZZZ_UNK roms